sensor_id;sensor_type;location;lat;lon;timestamp;pressure;altitude;pressure_sealevel;temperature;humidity
48790;BME280;41718;51.980;5.734;2023-07-29T00:03:59;100570.06;;;15.89;100.00
48790;BME280;41718;51.980;5.734;2023-07-29T00:09:02;100559.66;;;15.86;100.00
48790;BME280;41718;51.980;5.734;2023-07-29T00:14:04;100556.28;;;15.76;100.00
48790;BME280;41718;51.980;5.734;2023-07-29T00:19:05;100544.06;;;15.80;100.00
48790;BME280;41718;51.980;5.734;2023-07-29T00:24:09;100529.31;;;15.77;100.00
48790;BME280;41718;51.980;5.734;2023-07-29T00:29:11;100519.84;;;15.72;100.00
48790;BME280;41718;51.980;5.734;2023-07-29T00:34:15;100506.84;;;15.64;100.00
48790;BME280;41718;51.980;5.734;2023-07-29T00:39:20;100495.63;;;15.56;100.00
48790;BME280;41718;51.980;5.734;2023-07-29T00:44:22;100500.13;;;15.42;100.00
48790;BME280;41718;51.980;5.734;2023-07-29T00:49:26;100507.13;;;15.36;100.00
48790;BME280;41718;51.980;5.734;2023-07-29T00:54:28;100500.06;;;15.46;100.00
48790;BME280;41718;51.980;5.734;2023-07-29T00:59:31;100503.44;;;15.56;100.00
48790;BME280;41718;51.980;5.734;2023-07-29T01:04:33;100501.84;;;15.43;100.00
48790;BME280;41718;51.980;5.734;2023-07-29T01:15:11;100476.50;;;15.57;100.00
48790;BME280;41718;51.980;5.734;2023-07-29T01:20:17;100481.66;;;15.63;100.00
48790;BME280;41718;51.980;5.734;2023-07-29T01:25:21;100468.63;;;15.61;100.00
48790;BME280;41718;51.980;5.734;2023-07-29T01:30:30;100478.06;;;15.73;100.00
48790;BME280;41718;51.980;5.734;2023-07-29T01:40:36;100467.38;;;15.95;100.00
48790;BME280;41718;51.980;5.734;2023-07-29T01:45:38;100458.69;;;15.94;100.00
48790;BME280;41718;51.980;5.734;2023-07-29T01:50:40;100447.34;;;15.94;100.00
48790;BME280;41718;51.980;5.734;2023-07-29T01:55:42;100441.59;;;15.69;100.00
48790;BME280;41718;51.980;5.734;2023-07-29T02:00:44;100451.13;;;15.71;100.00
48790;BME280;41718;51.980;5.734;2023-07-29T02:05:47;100432.59;;;15.93;100.00
48790;BME280;41718;51.980;5.734;2023-07-29T02:10:48;100425.59;;;15.96;100.00
48790;BME280;41718;51.980;5.734;2023-07-29T02:15:52;100426.13;;;16.20;100.00
48790;BME280;41718;51.980;5.734;2023-07-29T02:20:54;100418.06;;;16.35;100.00
48790;BME280;41718;51.980;5.734;2023-07-29T02:25:56;100417.06;;;16.42;100.00
48790;BME280;41718;51.980;5.734;2023-07-29T02:31:14;100404.84;;;16.44;100.00
48790;BME280;41718;51.980;5.734;2023-07-29T02:36:16;100404.81;;;16.47;100.00
48790;BME280;41718;51.980;5.734;2023-07-29T02:41:18;100392.63;;;16.44;100.00
48790;BME280;41718;51.980;5.734;2023-07-29T02:46:19;100383.94;;;16.44;100.00
48790;BME280;41718;51.980;5.734;2023-07-29T02:51:21;100378.81;;;16.38;100.00
48790;BME280;41718;51.980;5.734;2023-07-29T02:56:23;100383.25;;;16.33;100.00
48790;BME280;41718;51.980;5.734;2023-07-29T03:01:25;100370.25;;;16.31;100.00
48790;BME280;41718;51.980;5.734;2023-07-29T03:06:26;100371.16;;;16.27;100.00
48790;BME280;41718;51.980;5.734;2023-07-29T03:11:28;100375.59;;;16.24;100.00
48790;BME280;41718;51.980;5.734;2023-07-29T03:16:29;100376.50;;;16.23;100.00
48790;BME280;41718;51.980;5.734;2023-07-29T03:21:34;100372.94;;;16.25;100.00
48790;BME280;41718;51.980;5.734;2023-07-29T03:26:39;100367.75;;;16.22;100.00
48790;BME280;41718;51.980;5.734;2023-07-29T03:31:43;100361.78;;;16.15;100.00
48790;BME280;41718;51.980;5.734;2023-07-29T03:36:45;100368.81;;;16.10;100.00
48790;BME280;41718;51.980;5.734;2023-07-29T03:41:48;100367.09;;;16.09;100.00
48790;BME280;41718;51.980;5.734;2023-07-29T03:46:53;100366.31;;;16.04;100.00
48790;BME280;41718;51.980;5.734;2023-07-29T03:51:54;100375.91;;;16.02;100.00
48790;BME280;41718;51.980;5.734;2023-07-29T03:56:56;100387.28;;;15.98;100.00
48790;BME280;41718;51.980;5.734;2023-07-29T04:01:58;100376.91;;;15.94;100.00
48790;BME280;41718;51.980;5.734;2023-07-29T04:07:00;100380.50;;;15.86;100.00
48790;BME280;41718;51.980;5.734;2023-07-29T04:12:01;100399.63;;;15.88;100.00
48790;BME280;41718;51.980;5.734;2023-07-29T04:17:03;100402.22;;;15.87;100.00
48790;BME280;41718;51.980;5.734;2023-07-29T04:22:08;100392.00;;;15.73;100.00
48790;BME280;41718;51.980;5.734;2023-07-29T04:27:10;100383.31;;;15.73;100.00
48790;BME280;41718;51.980;5.734;2023-07-29T04:32:11;100378.03;;;15.76;100.00
48790;BME280;41718;51.980;5.734;2023-07-29T04:37:13;100388.59;;;15.68;100.00
48790;BME280;41718;51.980;5.734;2023-07-29T04:42:14;100392.94;;;15.68;100.00
48790;BME280;41718;51.980;5.734;2023-07-29T04:47:16;100405.16;;;15.64;100.00
48790;BME280;41718;51.980;5.734;2023-07-29T04:52:18;100422.47;;;15.70;100.00
48790;BME280;41718;51.980;5.734;2023-07-29T04:57:21;100441.59;;;15.69;100.00
48790;BME280;41718;51.980;5.734;2023-07-29T05:02:25;100441.56;;;15.70;100.00
48790;BME280;41718;51.980;5.734;2023-07-29T05:07:27;100438.81;;;15.82;100.00
48790;BME280;41718;51.980;5.734;2023-07-29T05:12:28;100452.75;;;15.80;100.00
48790;BME280;41718;51.980;5.734;2023-07-29T05:17:30;100466.66;;;15.83;100.00
48790;BME280;41718;51.980;5.734;2023-07-29T05:22:32;100456.06;;;15.94;100.00
48790;BME280;41718;51.980;5.734;2023-07-29T05:27:34;100470.78;;;15.98;100.00
48790;BME280;41718;51.980;5.734;2023-07-29T05:32:35;100476.00;;;15.98;100.00
48790;BME280;41718;51.980;5.734;2023-07-29T05:37:40;100489.91;;;15.99;100.00
48790;BME280;41718;51.980;5.734;2023-07-29T05:42:42;100505.63;;;15.96;100.00
48790;BME280;41718;51.980;5.734;2023-07-29T05:47:43;100502.94;;;16.02;100.00
48790;BME280;41718;51.980;5.734;2023-07-29T05:52:45;100508.94;;;16.07;100.00
48790;BME280;41718;51.980;5.734;2023-07-29T05:57:47;100508.84;;;16.14;100.00
48790;BME280;41718;51.980;5.734;2023-07-29T06:02:48;100510.38;;;16.29;100.00
48790;BME280;41718;51.980;5.734;2023-07-29T06:07:50;100519.03;;;16.34;100.00
48790;BME280;41718;51.980;5.734;2023-07-29T06:12:51;100516.19;;;16.48;100.00
48790;BME280;41718;51.980;5.734;2023-07-29T06:17:54;100527.16;;;16.75;100.00
48790;BME280;41718;51.980;5.734;2023-07-29T06:22:57;100526.59;;;17.08;100.00
48790;BME280;41718;51.980;5.734;2023-07-29T06:27:59;100536.56;;;17.37;100.00
48790;BME280;41718;51.980;5.734;2023-07-29T06:33:01;100544.00;;;17.59;100.00
48790;BME280;41718;51.980;5.734;2023-07-29T06:38:04;100554.16;;;17.28;100.00
48790;BME280;41718;51.980;5.734;2023-07-29T06:43:06;100566.34;;;17.27;100.00
48790;BME280;41718;51.980;5.734;2023-07-29T06:48:08;100564.03;;;17.60;100.00
48790;BME280;41718;51.980;5.734;2023-07-29T06:53:11;100568.63;;;17.95;100.00
48790;BME280;41718;51.980;5.734;2023-07-29T06:58:16;100570.97;;;18.07;100.00
48790;BME280;41718;51.980;5.734;2023-07-29T07:03:18;100575.53;;;17.99;100.00
48790;BME280;41718;51.980;5.734;2023-07-29T07:08:21;100577.22;;;18.01;100.00
48790;BME280;41718;51.980;5.734;2023-07-29T07:13:23;100570.47;;;17.90;100.00
48790;BME280;41718;51.980;5.734;2023-07-29T07:18:24;100577.69;;;18.20;100.00
48790;BME280;41718;51.980;5.734;2023-07-29T07:23:26;100570.47;;;18.32;100.00
48790;BME280;41718;51.980;5.734;2023-07-29T07:28:34;100563.34;;;17.96;100.00
48790;BME280;41718;51.980;5.734;2023-07-29T07:33:36;100559.75;;;18.02;100.00
48790;BME280;41718;51.980;5.734;2023-07-29T07:38:41;100546.25;;;18.22;100.00
48790;BME280;41718;51.980;5.734;2023-07-29T07:44:02;100554.47;;;18.04;100.00
48790;BME280;41718;51.980;5.734;2023-07-29T07:49:07;100548.72;;;18.28;100.00
48790;BME280;41718;51.980;5.734;2023-07-29T07:54:09;100524.03;;;18.40;100.00
48790;BME280;41718;51.980;5.734;2023-07-29T07:59:21;100528.69;;;18.25;100.00
48790;BME280;41718;51.980;5.734;2023-07-29T08:04:24;100523.91;;;18.44;100.00
48790;BME280;41718;51.980;5.734;2023-07-29T08:09:30;100521.88;;;18.57;100.00
48790;BME280;41718;51.980;5.734;2023-07-29T08:14:39;100526.06;;;18.64;100.00
48790;BME280;41718;51.980;5.734;2023-07-29T08:19:45;100522.53;;;18.67;100.00
48790;BME280;41718;51.980;5.734;2023-07-29T08:24:47;100527.41;;;18.45;100.00
48790;BME280;41718;51.980;5.734;2023-07-29T08:29:53;100525.59;;;18.47;100.00
48790;BME280;41718;51.980;5.734;2023-07-29T08:34:58;100525.03;;;18.71;100.00
48790;BME280;41718;51.980;5.734;2023-07-29T08:40:05;100529.31;;;18.75;100.00
48790;BME280;41718;51.980;5.734;2023-07-29T08:45:07;100530.97;;;19.15;100.00
48790;BME280;41718;51.980;5.734;2023-07-29T08:50:13;100521.47;;;18.75;100.00
48790;BME280;41718;51.980;5.734;2023-07-29T08:55:19;100526.13;;;18.98;100.00
48790;BME280;41718;51.980;5.734;2023-07-29T09:00:21;100526.66;;;18.78;100.00
48790;BME280;41718;51.980;5.734;2023-07-29T09:05:23;100519.66;;;19.13;100.00
48790;BME280;41718;51.980;5.734;2023-07-29T09:10:25;100515.38;;;18.75;100.00
48790;BME280;41718;51.980;5.734;2023-07-29T09:15:32;100528.75;;;18.98;100.00
48790;BME280;41718;51.980;5.734;2023-07-29T09:20:34;100525.81;;;19.12;100.00
48790;BME280;41718;51.980;5.734;2023-07-29T09:25:39;100513.44;;;19.50;100.00
48790;BME280;41718;51.980;5.734;2023-07-29T09:30:42;100507.00;;;19.63;100.00
48790;BME280;41718;51.980;5.734;2023-07-29T09:35:47;100515.50;;;19.71;100.00
48790;BME280;41718;51.980;5.734;2023-07-29T09:40:49;100510.34;;;20.27;100.00
48790;BME280;41718;51.980;5.734;2023-07-29T09:45:53;100514.44;;;20.36;100.00
48790;BME280;41718;51.980;5.734;2023-07-29T09:50:56;100503.28;;;20.57;100.00
48790;BME280;41718;51.980;5.734;2023-07-29T09:55:58;100505.78;;;20.62;100.00
48790;BME280;41718;51.980;5.734;2023-07-29T10:00:59;100495.06;;;20.95;100.00
48790;BME280;41718;51.980;5.734;2023-07-29T10:06:03;100493.44;;;21.42;100.00
48790;BME280;41718;51.980;5.734;2023-07-29T10:11:09;100484.03;;;21.60;100.00
48790;BME280;41718;51.980;5.734;2023-07-29T10:16:11;100485.00;;;21.81;100.00
48790;BME280;41718;51.980;5.734;2023-07-29T10:21:17;100473.66;;;22.02;100.00
48790;BME280;41718;51.980;5.734;2023-07-29T10:26:19;100481.22;;;22.11;100.00
48790;BME280;41718;51.980;5.734;2023-07-29T10:31:22;100485.31;;;21.48;100.00
48790;BME280;41718;51.980;5.734;2023-07-29T10:36:24;100487.03;;;21.24;100.00
48790;BME280;41718;51.980;5.734;2023-07-29T10:46:56;100494.53;;;21.10;100.00
48790;BME280;41718;51.980;5.734;2023-07-29T10:51:57;100493.81;;;21.31;100.00
48790;BME280;41718;51.980;5.734;2023-07-29T10:57:00;100490.03;;;20.88;100.00
48790;BME280;41718;51.980;5.734;2023-07-29T11:02:12;100489.81;;;20.95;100.00
48790;BME280;41718;51.980;5.734;2023-07-29T11:17:36;100511.03;;;20.62;100.00
48790;BME280;41718;51.980;5.734;2023-07-29T11:22:38;100507.63;;;20.60;100.00
48790;BME280;41718;51.980;5.734;2023-07-29T11:27:40;100506.22;;;20.19;100.00
48790;BME280;41718;51.980;5.734;2023-07-29T11:32:44;100518.47;;;20.20;100.00
48790;BME280;41718;51.980;5.734;2023-07-29T11:37:48;100536.22;;;19.48;100.00
48790;BME280;41718;51.980;5.734;2023-07-29T11:42:54;100548.44;;;18.80;100.00
48790;BME280;41718;51.980;5.734;2023-07-29T11:47:55;100560.75;;;18.37;100.00
48790;BME280;41718;51.980;5.734;2023-07-29T11:52:57;100560.59;;;18.43;100.00
48790;BME280;41718;51.980;5.734;2023-07-29T11:58:04;100560.19;;;18.22;100.00
48790;BME280;41718;51.980;5.734;2023-07-29T12:03:09;100565.81;;;18.04;100.00
48790;BME280;41718;51.980;5.734;2023-07-29T12:08:34;100579.19;;;17.90;100.00
48790;BME280;41718;51.980;5.734;2023-07-29T12:25:48;100583.91;;;18.57;100.00
48790;BME280;41718;51.980;5.734;2023-07-29T12:31:16;100586.78;;;18.44;100.00
48790;BME280;41718;51.980;5.734;2023-07-29T12:43:32;100603.47;;;18.80;100.00
48790;BME280;41718;51.980;5.734;2023-07-29T12:49:02;100624.56;;;19.13;100.00
48790;BME280;41718;51.980;5.734;2023-07-29T12:54:27;100633.16;;;19.20;100.00
48790;BME280;41718;51.980;5.734;2023-07-29T12:59:31;100645.59;;;19.47;100.00
48790;BME280;41718;51.980;5.734;2023-07-29T13:04:32;100629.56;;;19.59;100.00
48790;BME280;41718;51.980;5.734;2023-07-29T13:09:34;100630.59;;;19.52;100.00
48790;BME280;41718;51.980;5.734;2023-07-29T13:14:37;100625.13;;;19.62;100.00
48790;BME280;41718;51.980;5.734;2023-07-29T13:19:38;100624.31;;;20.23;100.00
48790;BME280;41718;51.980;5.734;2023-07-29T13:24:40;100614.16;;;19.80;100.00
48790;BME280;41718;51.980;5.734;2023-07-29T13:29:42;100620.84;;;19.57;100.00
48790;BME280;41718;51.980;5.734;2023-07-29T13:34:45;100616.44;;;19.59;100.00
48790;BME280;41718;51.980;5.734;2023-07-29T13:39:52;100627.84;;;19.57;100.00
48790;BME280;41718;51.980;5.734;2023-07-29T13:44:56;100619.84;;;19.63;100.00
48790;BME280;41718;51.980;5.734;2023-07-29T13:49:59;100620.22;;;20.13;100.00
48790;BME280;41718;51.980;5.734;2023-07-29T13:55:02;100621.06;;;20.15;100.00
48790;BME280;41718;51.980;5.734;2023-07-29T14:00:10;100605.78;;;20.28;100.00
48790;BME280;41718;51.980;5.734;2023-07-29T14:05:12;100608.19;;;20.67;100.00
48790;BME280;41718;51.980;5.734;2023-07-29T14:10:17;100580.25;;;20.90;100.00
48790;BME280;41718;51.980;5.734;2023-07-29T14:15:23;100562.88;;;20.85;100.00
48790;BME280;41718;51.980;5.734;2023-07-29T14:20:33;100555.03;;;21.10;100.00
48790;BME280;41718;51.980;5.734;2023-07-29T14:25:35;100535.53;;;21.17;100.00
48790;BME280;41718;51.980;5.734;2023-07-29T14:30:41;100538.06;;;20.94;100.00
48790;BME280;41718;51.980;5.734;2023-07-29T14:35:43;100531.63;;;21.02;100.00
48790;BME280;41718;51.980;5.734;2023-07-29T14:40:47;100541.06;;;20.83;100.00
48790;BME280;41718;51.980;5.734;2023-07-29T14:45:49;100532.19;;;20.85;100.00
48790;BME280;41718;51.980;5.734;2023-07-29T14:50:54;100539.41;;;20.79;100.00
48790;BME280;41718;51.980;5.734;2023-07-29T14:55:56;100532.38;;;21.32;100.00
48790;BME280;41718;51.980;5.734;2023-07-29T15:00:59;100540.78;;;21.17;100.00
48790;BME280;41718;51.980;5.734;2023-07-29T15:06:01;100554.34;;;21.31;100.00
48790;BME280;41718;51.980;5.734;2023-07-29T15:11:04;100536.94;;;21.27;100.00
48790;BME280;41718;51.980;5.734;2023-07-29T15:16:08;100528.09;;;21.30;100.00
48790;BME280;41718;51.980;5.734;2023-07-29T15:21:12;100519.13;;;21.84;100.00
48790;BME280;41718;51.980;5.734;2023-07-29T15:26:13;100518.09;;;21.88;100.00
48790;BME280;41718;51.980;5.734;2023-07-29T15:36:32;100487.59;;;21.82;100.00
48790;BME280;41718;51.980;5.734;2023-07-29T15:41:40;100478.88;;;21.80;100.00
48790;BME280;41718;51.980;5.734;2023-07-29T15:46:43;100473.72;;;21.54;100.00
48790;BME280;41718;51.980;5.734;2023-07-29T15:51:45;100469.97;;;21.84;100.00
48790;BME280;41718;51.980;5.734;2023-07-29T15:56:46;100488.44;;;21.59;100.00
48790;BME280;41718;51.980;5.734;2023-07-29T16:01:48;100481.84;;;21.23;100.00
48790;BME280;41718;51.980;5.734;2023-07-29T16:06:51;100494.00;;;21.25;100.00
48790;BME280;41718;51.980;5.734;2023-07-29T16:11:53;100469.84;;;21.87;100.00
48790;BME280;41718;51.980;5.734;2023-07-29T16:16:57;100465.34;;;21.66;100.00
48790;BME280;41718;51.980;5.734;2023-07-29T16:21:58;100465.56;;;21.61;100.00
48790;BME280;41718;51.980;5.734;2023-07-29T16:27:25;100464.97;;;21.28;100.00
48790;BME280;41718;51.980;5.734;2023-07-29T16:32:55;100489.91;;;21.43;100.00
48790;BME280;41718;51.980;5.734;2023-07-29T16:37:57;100501.75;;;21.05;100.00
48790;BME280;41718;51.980;5.734;2023-07-29T16:43:00;100516.38;;;20.59;100.00
48790;BME280;41718;51.980;5.734;2023-07-29T16:48:02;100528.34;;;20.39;100.00
48790;BME280;41718;51.980;5.734;2023-07-29T16:53:04;100513.84;;;20.84;100.00
48790;BME280;41718;51.980;5.734;2023-07-29T16:58:06;100512.53;;;20.71;100.00
48790;BME280;41718;51.980;5.734;2023-07-29T17:03:09;100518.66;;;20.71;100.00
48790;BME280;41718;51.980;5.734;2023-07-29T17:08:11;100508.19;;;20.40;100.00
48790;BME280;41718;51.980;5.734;2023-07-29T17:13:13;100513.25;;;20.18;100.00
48790;BME280;41718;51.980;5.734;2023-07-29T17:18:16;100516.31;;;20.62;100.00
48790;BME280;41718;51.980;5.734;2023-07-29T17:23:19;100507.56;;;20.61;100.00
48790;BME280;41718;51.980;5.734;2023-07-29T17:28:20;100504.22;;;20.56;100.00
48790;BME280;41718;51.980;5.734;2023-07-29T17:33:22;100513.47;;;20.95;100.00
48790;BME280;41718;51.980;5.734;2023-07-29T17:38:24;100505.75;;;20.90;100.00
48790;BME280;41718;51.980;5.734;2023-07-29T17:43:25;100513.88;;;20.56;100.00
48790;BME280;41718;51.980;5.734;2023-07-29T17:48:27;100520.41;;;20.71;100.00
48790;BME280;41718;51.980;5.734;2023-07-29T17:53:30;100521.19;;;20.45;100.00
48790;BME280;41718;51.980;5.734;2023-07-29T17:58:31;100519.69;;;20.66;100.00
48790;BME280;41718;51.980;5.734;2023-07-29T18:03:33;100519.50;;;20.72;100.00
48790;BME280;41718;51.980;5.734;2023-07-29T18:08:34;100522.75;;;20.52;100.00
48790;BME280;41718;51.980;5.734;2023-07-29T18:13:36;100528.56;;;20.33;100.00
48790;BME280;41718;51.980;5.734;2023-07-29T18:18:39;100530.81;;;20.16;100.00
48790;BME280;41718;51.980;5.734;2023-07-29T18:23:41;100535.22;;;19.84;100.00
48790;BME280;41718;51.980;5.734;2023-07-29T18:28:42;100531.50;;;19.93;100.00
48790;BME280;41718;51.980;5.734;2023-07-29T18:33:44;100545.63;;;19.89;100.00
48790;BME280;41718;51.980;5.734;2023-07-29T18:38:45;100550.97;;;19.86;100.00
48790;BME280;41718;51.980;5.734;2023-07-29T18:43:47;100544.59;;;19.64;100.00
48790;BME280;41718;51.980;5.734;2023-07-29T18:48:48;100550.06;;;19.87;100.00
48790;BME280;41718;51.980;5.734;2023-07-29T18:53:50;100568.94;;;20.00;100.00
48790;BME280;41718;51.980;5.734;2023-07-29T18:58:52;100580.72;;;19.87;100.00
48790;BME280;41718;51.980;5.734;2023-07-29T19:03:53;100583.25;;;19.57;100.00
48790;BME280;41718;51.980;5.734;2023-07-29T19:08:55;100583.75;;;19.37;100.00
48790;BME280;41718;51.980;5.734;2023-07-29T19:13:56;100580.63;;;19.21;100.00
48790;BME280;41718;51.980;5.734;2023-07-29T19:18:58;100575.75;;;19.08;100.00
48790;BME280;41718;51.980;5.734;2023-07-29T19:23:59;100574.28;;;18.96;100.00
48790;BME280;41718;51.980;5.734;2023-07-29T19:29:01;100576.75;;;18.63;100.00
48790;BME280;41718;51.980;5.734;2023-07-29T19:34:03;100577.81;;;18.54;100.00
48790;BME280;41718;51.980;5.734;2023-07-29T19:39:04;100582.66;;;18.34;100.00
48790;BME280;41718;51.980;5.734;2023-07-29T19:44:06;100593.34;;;18.23;100.00
48790;BME280;41718;51.980;5.734;2023-07-29T19:49:21;100599.78;;;18.07;100.00
48790;BME280;41718;51.980;5.734;2023-07-29T19:54:23;100601.84;;;17.91;100.00
48790;BME280;41718;51.980;5.734;2023-07-29T19:59:24;100606.56;;;17.72;100.00
48790;BME280;41718;51.980;5.734;2023-07-29T20:04:48;100613.56;;;17.69;100.00
48790;BME280;41718;51.980;5.734;2023-07-29T20:09:50;100616.25;;;17.66;100.00
48790;BME280;41718;51.980;5.734;2023-07-29T20:14:52;100620.88;;;17.50;100.00
48790;BME280;41718;51.980;5.734;2023-07-29T20:19:54;100616.66;;;17.43;100.00
48790;BME280;41718;51.980;5.734;2023-07-29T20:24:56;100612.66;;;17.20;100.00
48790;BME280;41718;51.980;5.734;2023-07-29T20:29:57;100620.44;;;17.25;100.00
48790;BME280;41718;51.980;5.734;2023-07-29T20:35:03;100618.84;;;17.15;100.00
48790;BME280;41718;51.980;5.734;2023-07-29T20:40:05;100621.75;;;16.95;100.00
48790;BME280;41718;51.980;5.734;2023-07-29T20:45:08;100623.56;;;16.90;100.00
48790;BME280;41718;51.980;5.734;2023-07-29T20:50:10;100634.22;;;16.78;100.00
48790;BME280;41718;51.980;5.734;2023-07-29T20:55:12;100625.84;;;16.51;100.00
48790;BME280;41718;51.980;5.734;2023-07-29T21:00:14;100634.53;;;16.50;100.00
48790;BME280;41718;51.980;5.734;2023-07-29T21:05:16;100630.34;;;16.40;100.00
48790;BME280;41718;51.980;5.734;2023-07-29T21:10:18;100633.91;;;16.31;100.00
48790;BME280;41718;51.980;5.734;2023-07-29T21:15:20;100631.41;;;16.24;100.00
48790;BME280;41718;51.980;5.734;2023-07-29T21:20:21;100627.06;;;16.24;100.00
48790;BME280;41718;51.980;5.734;2023-07-29T21:25:23;100629.88;;;16.04;100.00
48790;BME280;41718;51.980;5.734;2023-07-29T21:30:25;100626.41;;;16.05;100.00
48790;BME280;41718;51.980;5.734;2023-07-29T21:35:27;100627.44;;;15.87;100.00
48790;BME280;41718;51.980;5.734;2023-07-29T21:40:29;100632.63;;;15.95;100.00
48790;BME280;41718;51.980;5.734;2023-07-29T21:45:31;100627.53;;;15.83;100.00
48790;BME280;41718;51.980;5.734;2023-07-29T21:50:32;100632.78;;;15.75;100.00
48790;BME280;41718;51.980;5.734;2023-07-29T21:55:39;100631.06;;;15.74;100.00
48790;BME280;41718;51.980;5.734;2023-07-29T22:00:41;100645.78;;;15.83;100.00
48790;BME280;41718;51.980;5.734;2023-07-29T22:05:43;100634.53;;;15.75;100.00
48790;BME280;41718;51.980;5.734;2023-07-29T22:10:45;100640.53;;;15.84;100.00
48790;BME280;41718;51.980;5.734;2023-07-29T22:15:46;100647.56;;;15.76;100.00
48790;BME280;41718;51.980;5.734;2023-07-29T22:20:52;100648.56;;;15.61;100.00
48790;BME280;41718;51.980;5.734;2023-07-29T22:25:59;100647.81;;;15.46;100.00
48790;BME280;41718;51.980;5.734;2023-07-29T22:31:01;100651.50;;;15.19;100.00
48790;BME280;41718;51.980;5.734;2023-07-29T22:36:07;100658.59;;;14.98;100.00
48790;BME280;41718;51.980;5.734;2023-07-29T22:41:08;100667.38;;;14.82;100.00
48790;BME280;41718;51.980;5.734;2023-07-29T22:46:10;100665.69;;;14.76;100.00
48790;BME280;41718;51.980;5.734;2023-07-29T22:51:12;100674.34;;;14.74;100.00
48790;BME280;41718;51.980;5.734;2023-07-29T22:56:13;100681.38;;;14.64;100.00
48790;BME280;41718;51.980;5.734;2023-07-29T23:01:15;100693.56;;;14.53;100.00
48790;BME280;41718;51.980;5.734;2023-07-29T23:06:17;100697.00;;;14.52;100.00
48790;BME280;41718;51.980;5.734;2023-07-29T23:11:18;100708.28;;;14.57;100.00
48790;BME280;41718;51.980;5.734;2023-07-29T23:16:22;100711.75;;;14.45;100.00
48790;BME280;41718;51.980;5.734;2023-07-29T23:21:24;100718.72;;;14.42;100.00
48790;BME280;41718;51.980;5.734;2023-07-29T23:26:25;100720.47;;;14.33;100.00
48790;BME280;41718;51.980;5.734;2023-07-29T23:31:27;100720.50;;;14.24;100.00
48790;BME280;41718;51.980;5.734;2023-07-29T23:36:29;100713.56;;;14.20;100.00
48790;BME280;41718;51.980;5.734;2023-07-29T23:41:30;100719.66;;;14.24;100.00
48790;BME280;41718;51.980;5.734;2023-07-29T23:46:32;100720.50;;;14.23;100.00
48790;BME280;41718;51.980;5.734;2023-07-29T23:51:34;100725.75;;;14.08;100.00
48790;BME280;41718;51.980;5.734;2023-07-29T23:56:36;100730.06;;;14.10;100.00
